Time;durP1;ratioP1;P1;durP2;ratioP2;P2;SDS_P1;SDS_P2;PMS_P1;PMS_P2;Temp;Humidity;BMP_temperature;BMP_pressure;BME280_temperature;BME280_humidity;BME280_pressure;Samples;Min_cycle;Max_cycle;Signal;HPM_P1;HPM_P2
2022/03/31 00:00:38;;;;;;;;;;;27.00;99.90;;;;;;4127648;28;20047;-67
2022/03/31 00:02:43;;;;;;;9.82;6.85;;;26.90;99.90;;;;;;4160357;28;20441;-67
2022/03/31 00:04:48;;;;;;;10.52;7.20;;;26.90;99.90;;;;;;4160487;28;20072;-67
2022/03/31 00:07:00;;;;;;;11.98;7.07;;;26.90;99.90;;;;;;4160188;28;20050;-68
2022/03/31 00:09:05;;;;;;;9.57;7.35;;;27.00;99.90;;;;;;4160439;28;20121;-68
2022/03/31 00:11:13;;;;;;;12.23;8.02;;;27.10;99.90;;;;;;4160153;28;20053;-68
2022/03/31 00:13:25;;;;;;;10.48;8.50;;;27.00;99.90;;;;;;4141722;28;20670;-68
2022/03/31 00:15:31;;;;;;;16.98;10.50;;;27.10;99.90;;;;;;4160008;28;20057;-67
2022/03/31 00:17:37;;;;;;;16.35;11.07;;;27.10;99.90;;;;;;4160365;28;20057;-67
2022/03/31 00:19:46;;;;;;;12.88;10.27;;;27.10;99.90;;;;;;4157214;28;20041;-67
2022/03/31 00:21:58;;;;;;;12.00;10.55;;;27.00;99.90;;;;;;4157575;28;20396;-67
2022/03/31 00:24:03;;;;;;;15.27;10.82;;;27.00;99.90;;;;;;4160433;28;20790;-67
2022/03/31 00:26:13;;;;;;;13.05;10.52;;;26.90;99.90;;;;;;4150247;28;20052;-67
2022/03/31 00:28:18;;;;;;;14.32;10.07;;;26.90;99.90;;;;;;4160438;28;20124;-67
2022/03/31 00:30:25;;;;;;;15.05;11.02;;;26.90;99.90;;;;;;4160397;28;20049;-66
2022/03/31 00:32:33;;;;;;;14.35;11.73;;;26.90;99.90;;;;;;4149537;28;20064;-67
2022/03/31 00:34:40;;;;;;;13.77;10.85;;;27.10;99.90;;;;;;4161258;28;20060;-67
2022/03/31 00:36:46;;;;;;;12.70;10.32;;;27.20;99.90;;;;;;4160963;28;20049;-67
2022/03/31 00:41:17;;;;;;;14.73;10.30;;;27.20;99.90;;;;;;4160605;28;20057;-67
2022/03/31 00:43:25;;;;;;;12.32;10.13;;;27.20;99.90;;;;;;4161178;28;20080;-67
2022/03/31 00:45:46;;;;;;;12.23;9.40;;;27.20;99.90;;;;;;4160745;28;20103;-67
2022/03/31 00:47:53;;;;;;;12.77;8.60;;;27.20;99.90;;;;;;4159892;28;20049;-67
2022/03/31 00:50:00;;;;;;;9.32;7.85;;;26.90;99.90;;;;;;4160564;28;20045;-67
2022/03/31 00:52:09;;;;;;;10.60;8.00;;;27.10;99.90;;;;;;4160707;28;20056;-67
2022/03/31 00:54:16;;;;;;;12.00;7.07;;;27.20;99.90;;;;;;4160889;28;20041;-68
2022/03/31 00:56:21;;;;;;;9.77;7.43;;;27.30;99.90;;;;;;4141325;28;20532;-68
2022/03/31 00:58:33;;;;;;;12.45;7.70;;;27.20;99.90;;;;;;4142010;28;20609;-67
2022/03/31 01:00:38;;;;;;;9.65;7.20;;;27.40;99.90;;;;;;4125693;28;20054;-67
2022/03/31 01:02:44;;;;;;;8.45;6.70;;;27.50;99.90;;;;;;4141719;28;20045;-67
2022/03/31 01:04:58;;;;;;;10.32;6.30;;;27.40;99.70;;;;;;4141813;28;20726;-67
2022/03/31 01:07:03;;;;;;;8.85;5.47;;;27.50;99.10;;;;;;4125402;28;20050;-66
2022/03/31 01:09:12;;;;;;;6.68;5.10;;;27.50;99.30;;;;;;4141876;28;20161;-67
2022/03/31 01:11:21;;;;;;;6.75;5.78;;;27.60;99.20;;;;;;4141522;28;20057;-68
2022/03/31 01:13:28;;;;;;;8.10;5.78;;;27.80;98.90;;;;;;4141745;28;20057;-67
2022/03/31 01:15:34;;;;;;;8.38;5.05;;;28.00;98.70;;;;;;4141840;28;20057;-67
2022/03/31 01:17:40;;;;;;;5.47;4.18;;;28.00;98.40;;;;;;4140936;28;20057;-67
2022/03/31 01:19:46;;;;;;;6.85;4.30;;;28.00;97.60;;;;;;4141623;28;20578;-67
2022/03/31 01:21:53;;;;;;;5.63;3.63;;;28.00;97.20;;;;;;4141707;28;20048;-67
2022/03/31 01:23:59;;;;;;;6.47;3.88;;;28.10;97.40;;;;;;4141447;28;20046;-67
2022/03/31 01:26:10;;;;;;;3.95;3.22;;;28.10;97.20;;;;;;4125868;28;20131;-67
2022/03/31 01:28:16;;;;;;;5.75;3.40;;;28.20;96.90;;;;;;4155866;28;20049;-67
2022/03/31 01:30:23;;;;;;;6.38;3.35;;;28.20;96.90;;;;;;4134584;28;20049;-67
2022/03/31 01:32:30;;;;;;;5.32;3.67;;;28.10;97.00;;;;;;4157313;28;20584;-66
2022/03/31 01:34:36;;;;;;;6.10;3.25;;;28.30;97.00;;;;;;4160428;28;20053;-67
2022/03/31 01:36:44;;;;;;;6.85;3.05;;;28.30;97.00;;;;;;4159532;28;20129;-67
2022/03/31 01:38:57;;;;;;;4.63;3.25;;;28.40;96.90;;;;;;4159144;28;20072;-67
2022/03/31 01:41:04;;;;;;;6.25;3.45;;;28.50;96.30;;;;;;4159262;28;20076;-67
2022/03/31 01:43:15;;;;;;;6.43;3.55;;;28.50;96.70;;;;;;4158715;28;20137;-67
2022/03/31 01:45:21;;;;;;;4.95;3.10;;;28.50;96.50;;;;;;4159295;28;20099;-67
2022/03/31 01:47:42;;;;;;;5.25;3.10;;;28.50;96.70;;;;;;4158973;28;20415;-67
2022/03/31 01:49:51;;;;;;;7.55;3.13;;;28.60;96.50;;;;;;4159255;28;20538;-67
2022/03/31 01:51:56;;;;;;;5.22;3.65;;;28.60;96.50;;;;;;4158382;28;20053;-68
2022/03/31 01:54:05;;;;;;;5.03;3.78;;;28.70;96.60;;;;;;4159497;28;20107;-68
2022/03/31 01:56:13;;;;;;;9.02;3.88;;;28.70;96.60;;;;;;4159186;28;20049;-67
2022/03/31 01:58:21;;;;;;;6.32;3.83;;;28.80;96.60;;;;;;4158284;28;20041;-67
2022/03/31 02:00:32;;;;;;;7.75;3.60;;;28.80;96.80;;;;;;4142911;28;20681;-67
2022/03/31 02:02:41;;;;;;;6.07;3.45;;;28.80;96.60;;;;;;4150632;28;20059;-67
2022/03/31 02:04:47;;;;;;;5.20;2.95;;;28.90;96.30;;;;;;4162720;28;20049;-68
2022/03/31 02:06:52;;;;;;;6.68;3.35;;;29.00;95.90;;;;;;4162688;28;20573;-68
2022/03/31 02:09:00;;;;;;;5.47;2.85;;;29.00;96.20;;;;;;4161818;28;20045;-67
2022/03/31 02:11:12;;;;;;;5.72;2.92;;;29.00;95.90;;;;;;4162553;28;20381;-67
2022/03/31 02:13:17;;;;;;;3.53;2.55;;;29.10;95.70;;;;;;4162009;28;20397;-68
2022/03/31 02:15:29;;;;;;;6.43;2.60;;;29.00;95.30;;;;;;4162780;28;20053;-67
2022/03/31 02:17:34;;;;;;;4.28;2.70;;;29.00;95.60;;;;;;4162238;28;20057;-67
2022/03/31 02:19:38;;;;;;;3.85;2.30;;;29.10;95.60;;;;;;4150398;28;20160;-68
2022/03/31 02:21:46;;;;;;;5.00;2.13;;;29.20;95.30;;;;;;4162322;28;20127;-67
2022/03/31 02:23:52;;;;;;;4.60;2.03;;;29.20;94.60;;;;;;4161839;28;20392;-67
2022/03/31 02:25:58;;;;;;;7.00;2.28;;;29.20;94.70;;;;;;4162381;28;20053;-67
2022/03/31 02:28:11;;;;;;;5.18;2.50;;;29.30;94.90;;;;;;4162055;28;20044;-68
2022/03/31 02:30:20;;;;;;;4.78;2.30;;;29.40;94.60;;;;;;4162335;28;20081;-67
2022/03/31 02:32:25;;;;;;;4.80;2.55;;;29.50;94.50;;;;;;4161734;28;20080;-67
2022/03/31 02:34:34;;;;;;;4.15;2.47;;;29.50;94.70;;;;;;4163122;28;20128;-67
2022/03/31 02:36:40;;;;;;;3.03;2.03;;;29.60;94.90;;;;;;4162436;28;20041;-67
2022/03/31 02:38:46;;;;;;;4.60;2.47;;;29.70;95.00;;;;;;4161753;28;20728;-67
2022/03/31 02:40:57;;;;;;;5.00;2.05;;;29.70;94.70;;;;;;4161807;28;20038;-67
2022/03/31 02:43:03;;;;;;;7.68;2.42;;;29.70;94.50;;;;;;4161996;28;20045;-67
2022/03/31 02:45:08;;;;;;;3.72;2.10;;;29.70;94.30;;;;;;4161973;28;20045;-67
2022/03/31 02:47:15;;;;;;;3.75;1.95;;;29.60;94.30;;;;;;4161921;28;20389;-67
2022/03/31 02:49:22;;;;;;;3.13;1.70;;;29.60;94.10;;;;;;4161616;28;20663;-67
2022/03/31 02:51:29;;;;;;;2.33;1.77;;;29.40;93.70;;;;;;4161551;28;20049;-68
2022/03/31 02:55:55;;;;;;;4.10;1.70;;;29.50;94.20;;;;;;4161395;28;20138;-67
2022/03/31 02:58:07;;;;;;;4.93;2.13;;;29.70;93.80;;;;;;4161661;28;20412;-67
2022/03/31 03:00:14;;;;;;;5.28;2.42;;;29.80;93.90;;;;;;4161661;28;20060;-67
2022/03/31 03:02:19;;;;;;;5.13;1.83;;;30.00;94.00;;;;;;4161622;28;20041;-66
2022/03/31 03:04:34;;;;;;;4.80;2.30;;;29.90;93.80;;;;;;4161470;28;20054;-68
2022/03/31 03:06:42;;;;;;;2.15;1.52;;;30.00;93.70;;;;;;4161619;28;20404;-67
2022/03/31 03:08:47;;;;;;;3.95;2.00;;;30.00;93.50;;;;;;4160899;28;20698;-67
2022/03/31 03:10:54;;;;;;;2.42;1.80;;;30.10;93.30;;;;;;4161370;28;20051;-68
2022/03/31 03:13:02;;;;;;;3.42;2.00;;;30.10;93.10;;;;;;4160903;28;20127;-67
2022/03/31 03:15:09;;;;;;;4.57;2.05;;;30.10;93.30;;;;;;4161548;28;20057;-68
2022/03/31 03:17:14;;;;;;;3.25;1.88;;;30.10;93.40;;;;;;4161540;28;20056;-68
2022/03/31 03:19:23;;;;;;;3.22;1.77;;;30.30;93.50;;;;;;4161198;28;20674;-68
2022/03/31 03:21:29;;;;;;;2.58;1.52;;;30.30;93.20;;;;;;4160878;28;20060;-69
2022/03/31 03:23:37;;;;;;;3.83;2.10;;;30.30;93.10;;;;;;4161256;28;20107;-67
2022/03/31 03:25:46;;;;;;;3.00;1.73;;;30.10;93.20;;;;;;4161325;28;20041;-67
2022/03/31 03:27:51;;;;;;;2.83;1.58;;;30.20;93.50;;;;;;4161068;28;20076;-67
2022/03/31 03:29:56;;;;;;;2.83;1.77;;;30.30;93.70;;;;;;4160829;28;20045;-67
2022/03/31 03:32:05;;;;;;;4.35;1.70;;;30.40;93.10;;;;;;4162146;28;20049;-67
2022/03/31 03:34:10;;;;;;;3.75;1.80;;;30.40;92.50;;;;;;4162021;28;20081;-67
2022/03/31 03:36:18;;;;;;;4.28;1.95;;;30.50;92.20;;;;;;4162032;28;20100;-67
2022/03/31 03:38:31;;;;;;;;;;;30.60;92.30;;;;;;4162369;28;20053;-67
2022/03/31 03:40:38;;;;;;;3.30;1.70;;;30.60;92.10;;;;;;4161766;28;19932;-68
2022/03/31 03:42:43;;;;;;;5.70;2.00;;;30.60;92.40;;;;;;4162073;28;20723;-68
2022/03/31 03:44:54;;;;;;;3.42;1.77;;;30.70;92.70;;;;;;4143520;28;20521;-68
2022/03/31 03:47:00;;;;;;;2.90;1.88;;;30.70;92.60;;;;;;4161621;28;20460;-68
2022/03/31 03:49:08;;;;;;;3.65;2.30;;;30.90;92.90;;;;;;4161358;28;20045;-68
2022/03/31 03:51:17;;;;;;;2.92;1.75;;;30.90;92.20;;;;;;4160353;28;20042;-67
2022/03/31 03:53:22;;;;;;;3.88;1.85;;;30.80;92.30;;;;;;4160832;28;20141;-67
2022/03/31 03:55:31;;;;;;;3.80;1.88;;;30.80;92.70;;;;;;4160785;28;20172;-67
2022/03/31 03:57:41;;;;;;;5.13;2.22;;;30.80;92.10;;;;;;4160760;28;20730;-67
2022/03/31 03:59:47;;;;;;;3.72;2.20;;;30.80;92.30;;;;;;4160704;28;20107;-67
2022/03/31 04:01:52;;;;;;;3.30;2.00;;;30.80;92.20;;;;;;4160533;28;20168;-67
2022/03/31 04:04:06;;;;;;;4.80;2.30;;;30.80;92.10;;;;;;4160779;28;20396;-68
2022/03/31 04:06:11;;;;;;;7.35;2.58;;;30.90;92.10;;;;;;4160771;28;20080;-68
2022/03/31 04:08:25;;;;;;;2.30;1.80;;;31.00;92.20;;;;;;4160735;28;20047;-67
2022/03/31 04:10:39;;;;;;;;;;;31.10;92.00;;;;;;4160612;28;20061;-67
2022/03/31 04:12:44;;;;;;;4.03;1.83;;;31.10;91.70;;;;;;4160122;28;19932;-67
2022/03/31 04:14:49;;;;;;;4.45;1.75;;;31.20;91.70;;;;;;4160180;28;20072;-67
2022/03/31 04:16:58;;;;;;;3.30;1.90;;;31.20;91.70;;;;;;4160798;28;20136;-67
2022/03/31 04:19:08;;;;;;;4.93;1.88;;;31.10;90.60;;;;;;4160002;28;20072;-68
2022/03/31 04:21:14;;;;;;;4.75;2.30;;;31.00;91.20;;;;;;4160458;28;20500;-67
2022/03/31 04:23:24;;;;;;;3.95;2.17;;;31.10;91.00;;;;;;4159526;28;20053;-67
2022/03/31 04:25:30;;;;;;;3.42;2.00;;;30.90;91.20;;;;;;4159449;28;20051;-67
2022/03/31 04:27:35;;;;;;;4.45;2.22;;;31.00;91.40;;;;;;4160705;28;20055;-67
2022/03/31 04:29:42;;;;;;;2.28;1.88;;;31.00;91.40;;;;;;4159052;28;20045;-68
2022/03/31 04:31:48;;;;;;;3.00;1.60;;;31.10;91.40;;;;;;4160979;28;20049;-68
2022/03/31 04:33:53;;;;;;;3.42;1.95;;;31.10;91.30;;;;;;4160567;28;20056;-67
2022/03/31 04:36:03;;;;;;;3.67;1.85;;;31.00;90.80;;;;;;4160245;28;20657;-67
2022/03/31 04:38:10;;;;;;;4.00;1.80;;;31.00;91.60;;;;;;4160707;28;20054;-67
2022/03/31 04:40:17;;;;;;;5.05;1.85;;;31.10;91.70;;;;;;4160264;28;20054;-67
2022/03/31 04:42:27;;;;;;;2.67;1.58;;;31.20;91.30;;;;;;4159958;28;20409;-67
2022/03/31 04:44:33;;;;;;;4.35;1.52;;;31.20;90.10;;;;;;4160055;28;20088;-67
2022/03/31 04:46:39;;;;;;;4.63;2.30;;;31.30;90.60;;;;;;4159882;28;20041;-67
2022/03/31 04:48:48;;;;;;;4.45;2.20;;;31.40;90.60;;;;;;4160063;28;20401;-67
2022/03/31 04:50:55;;;;;;;3.92;1.65;;;31.40;90.70;;;;;;4159885;28;20057;-68
2022/03/31 04:53:02;;;;;;;3.55;1.60;;;31.40;90.60;;;;;;4160131;28;20243;-67
2022/03/31 04:55:09;;;;;;;3.60;1.75;;;31.40;90.50;;;;;;4158365;28;20080;-67
2022/03/31 04:57:15;;;;;;;4.53;1.60;;;31.40;90.30;;;;;;4158651;28;20055;-67
2022/03/31 04:59:20;;;;;;;4.18;1.55;;;31.40;90.30;;;;;;4159734;28;20626;-67
2022/03/31 05:01:30;;;;;;;5.90;1.60;;;31.30;90.60;;;;;;4159667;28;20080;-67
2022/03/31 05:03:43;;;;;;;2.55;1.70;;;31.50;90.40;;;;;;4159660;28;20129;-67
2022/03/31 05:05:52;;;;;;;4.53;1.63;;;31.50;90.30;;;;;;4159271;28;20049;-67
2022/03/31 05:08:01;;;;;;;3.38;1.50;;;31.60;90.60;;;;;;4159859;28;20041;-68
2022/03/31 05:10:07;;;;;;;2.80;1.40;;;31.70;90.20;;;;;;4159536;28;20088;-67
2022/03/31 05:12:12;;;;;;;3.20;1.30;;;31.80;90.00;;;;;;4159352;28;20076;-68
2022/03/31 05:14:22;;;;;;;2.90;1.55;;;31.70;89.60;;;;;;4158753;28;20045;-66
2022/03/31 05:16:30;;;;;;;3.55;1.40;;;31.70;88.90;;;;;;4158819;28;20533;-67
2022/03/31 05:18:35;;;;;;;3.13;1.40;;;31.80;88.80;;;;;;4158990;28;20054;-67
2022/03/31 05:20:43;;;;;;;3.63;1.50;;;31.70;89.10;;;;;;4157648;28;20532;-67
2022/03/31 05:22:51;;;;;;;4.38;1.58;;;31.80;89.40;;;;;;4158806;28;20575;-67
2022/03/31 05:24:57;;;;;;;1.85;1.45;;;31.90;89.40;;;;;;4158441;28;20451;-67
2022/03/31 05:27:06;;;;;;;2.53;1.42;;;31.90;89.70;;;;;;4158690;28;20050;-67
2022/03/31 05:29:13;;;;;;;2.83;1.40;;;31.90;89.70;;;;;;4158933;28;20045;-67
2022/03/31 05:31:19;;;;;;;1.95;1.17;;;31.80;88.10;;;;;;4158753;28;20046;-67
2022/03/31 05:33:36;;;;;;;2.42;1.30;;;31.90;89.40;;;;;;4158578;28;20523;-67
2022/03/31 05:35:41;;;;;;;3.10;1.60;;;32.00;89.50;;;;;;4157625;28;20068;-67
2022/03/31 05:37:46;;;;;;;4.55;1.77;;;32.00;90.00;;;;;;4158205;28;20115;-68
2022/03/31 05:39:55;;;;;;;3.53;1.50;;;32.00;88.80;;;;;;4158598;28;20496;-68
2022/03/31 05:42:00;;;;;;;3.13;1.70;;;31.90;89.60;;;;;;4158631;28;20038;-67
2022/03/31 05:44:06;;;;;;;3.17;1.60;;;32.00;89.50;;;;;;4158659;28;20365;-67
2022/03/31 05:46:16;;;;;;;4.95;1.83;;;32.00;89.30;;;;;;4158568;28;20091;-67
2022/03/31 05:48:21;;;;;;;3.47;1.70;;;32.10;88.30;;;;;;4158941;28;20606;-67
2022/03/31 05:50:32;;;;;;;2.20;1.55;;;32.10;89.40;;;;;;4158813;28;20385;-67
2022/03/31 05:52:45;;;;;;;3.67;1.90;;;32.00;89.80;;;;;;4142605;28;20061;-67
2022/03/31 05:54:51;;;;;;;4.50;1.85;;;32.00;89.00;;;;;;4142263;28;20042;-67
2022/03/31 05:56:56;;;;;;;3.08;1.52;;;32.10;89.40;;;;;;4152064;28;20058;-67
2022/03/31 05:59:04;;;;;;;2.50;1.50;;;32.10;89.30;;;;;;4158225;28;20099;-67
2022/03/31 06:01:09;;;;;;;2.80;1.23;;;32.20;88.90;;;;;;4158186;28;20056;-67
2022/03/31 06:03:17;;;;;;;4.60;1.33;;;32.30;89.30;;;;;;4158572;28;20051;-68
2022/03/31 06:05:30;;;;;;;3.33;1.30;;;32.30;89.10;;;;;;4158923;28;20050;-67
2022/03/31 06:07:35;;;;;;;2.10;1.55;;;32.40;87.20;;;;;;4158226;28;20735;-68
2022/03/31 06:09:40;;;;;;;1.92;1.27;;;32.40;87.80;;;;;;4158341;28;20049;-68
2022/03/31 06:11:48;;;;;;;2.53;1.50;;;32.40;87.30;;;;;;4158164;28;20073;-68
2022/03/31 06:13:54;;;;;;;3.53;1.70;;;32.30;87.30;;;;;;4081718;28;2229543;-67
2022/03/31 06:16:03;;;;;;;6.45;2.47;;;32.30;87.60;;;;;;4159353;28;20567;-68
2022/03/31 06:18:19;;;;;;;3.10;1.38;;;32.40;87.80;;;;;;4159032;28;20049;-67
2022/03/31 06:20:27;;;;;;;2.33;1.40;;;32.40;87.80;;;;;;4159334;28;20050;-67
2022/03/31 06:22:33;;;;;;;2.85;1.40;;;32.50;87.00;;;;;;4159531;28;20052;-67
2022/03/31 06:24:46;;;;;;;2.10;1.42;;;32.40;86.90;;;;;;4159628;28;20523;-67
2022/03/31 06:26:51;;;;;;;1.90;1.40;;;32.40;86.60;;;;;;4158602;28;20516;-68
2022/03/31 06:28:57;;;;;;;2.72;1.27;;;32.30;85.30;;;;;;4158348;28;20502;-68
2022/03/31 06:31:07;;;;;;;3.22;1.50;;;32.30;86.20;;;;;;4150183;28;20045;-68
2022/03/31 06:33:17;;;;;;;3.80;1.45;;;32.40;86.60;;;;;;4160328;28;20049;-68
2022/03/31 06:35:22;;;;;;;3.35;1.50;;;32.40;86.90;;;;;;4159982;28;20042;-67
2022/03/31 06:37:31;;;;;;;3.05;1.50;;;32.30;86.70;;;;;;4158669;28;20065;-68
2022/03/31 06:39:36;;;;;;;1.83;1.30;;;32.30;87.10;;;;;;4158971;28;20064;-68
2022/03/31 06:41:44;;;;;;;2.53;1.50;;;32.30;87.70;;;;;;4158636;28;20477;-68
2022/03/31 06:43:53;;;;;;;4.15;1.30;;;32.40;87.10;;;;;;4157625;28;20084;-67
2022/03/31 06:45:58;;;;;;;3.42;1.30;;;32.50;86.20;;;;;;4158978;28;20138;-69
2022/03/31 06:48:06;;;;;;;3.40;1.38;;;32.60;84.90;;;;;;4159770;28;20083;-68
2022/03/31 06:50:17;;;;;;;2.40;1.45;;;32.60;84.90;;;;;;4161709;28;20068;-68
2022/03/31 06:52:23;;;;;;;2.65;1.40;;;32.60;83.50;;;;;;4161510;28;20133;-68
2022/03/31 06:54:28;;;;;;;2.05;1.35;;;32.50;83.90;;;;;;4161903;28;20599;-67
2022/03/31 06:56:40;;;;;;;2.85;1.60;;;32.60;84.50;;;;;;4161706;28;20115;-66
2022/03/31 06:58:45;;;;;;;3.58;1.38;;;32.60;84.30;;;;;;4161498;28;20108;-67
2022/03/31 07:00:50;;;;;;;2.28;1.48;;;32.70;85.20;;;;;;4161849;28;20041;-67
2022/03/31 07:03:00;;;;;;;4.10;1.80;;;32.70;86.10;;;;;;4161381;28;20054;-67
2022/03/31 07:05:07;;;;;;;3.70;1.90;;;32.80;85.20;;;;;;4161770;28;20042;-67
2022/03/31 07:07:17;;;;;;;5.95;2.05;;;32.80;85.60;;;;;;4161464;28;20046;-67
2022/03/31 07:09:28;;;;;;;3.28;1.90;;;32.90;85.20;;;;;;4161186;28;20131;-67
2022/03/31 07:11:34;;;;;;;2.83;1.42;;;32.90;86.30;;;;;;4161416;28;20060;-67
2022/03/31 07:13:47;;;;;;;2.85;1.70;;;33.00;85.60;;;;;;4161049;28;20123;-67
2022/03/31 07:15:57;;;;;;;;;;;33.00;85.30;;;;;;4162206;28;20408;-67
2022/03/31 07:18:03;;;;;;;3.15;1.65;;;33.00;85.40;;;;;;4161591;28;19947;-67
2022/03/31 07:20:09;;;;;;;2.90;2.05;;;33.10;85.40;;;;;;4160907;28;20115;-67
2022/03/31 07:22:18;;;;;;;3.88;1.80;;;33.10;84.50;;;;;;4161488;28;20568;-67
2022/03/31 07:24:30;;;;;;;3.55;1.88;;;33.10;83.60;;;;;;4161296;28;20057;-67
2022/03/31 07:26:35;;;;;;;3.58;1.92;;;33.10;83.50;;;;;;4161462;28;20057;-67
2022/03/31 07:28:44;;;;;;;2.92;1.60;;;33.10;83.30;;;;;;4161020;28;20041;-66
2022/03/31 07:30:51;;;;;;;3.22;1.70;;;33.10;82.80;;;;;;4160210;28;20042;-67
2022/03/31 07:33:03;;;;;;;3.67;2.00;;;33.20;83.40;;;;;;4160961;28;20428;-67
2022/03/31 07:35:12;;;;;;;2.80;1.70;;;33.10;82.60;;;;;;4162046;28;20076;-67
2022/03/31 07:37:18;;;;;;;2.83;1.98;;;33.00;82.50;;;;;;4162260;28;20061;-66
2022/03/31 07:39:25;;;;;;;2.45;1.55;;;33.10;83.20;;;;;;4161931;28;20124;-66
2022/03/31 07:41:35;;;;;;;3.88;1.77;;;33.10;83.30;;;;;;4161387;28;20140;-67
2022/03/31 07:43:42;;;;;;;3.60;1.60;;;33.20;83.00;;;;;;4160482;28;20051;-67
2022/03/31 07:45:49;;;;;;;3.22;1.70;;;33.10;82.30;;;;;;4161856;28;20076;-66
2022/03/31 07:48:02;;;;;;;2.30;1.40;;;33.20;83.10;;;;;;4161566;28;20038;-67
2022/03/31 07:50:09;;;;;;;3.58;1.65;;;33.20;83.10;;;;;;4161890;28;20068;-67
2022/03/31 07:52:16;;;;;;;3.28;1.60;;;33.20;83.30;;;;;;4161630;28;20053;-67
2022/03/31 07:54:44;;;;;;;2.80;2.22;;;33.20;82.30;;;;;;4161524;28;20111;-67
2022/03/31 07:56:50;;;;;;;3.53;1.80;;;33.20;82.00;;;;;;4161545;28;20055;-67
2022/03/31 07:58:56;;;;;;;5.05;2.03;;;33.20;82.30;;;;;;4160831;28;20123;-67
2022/03/31 08:01:09;;;;;;;2.72;1.80;;;33.10;82.90;;;;;;4127814;28;20065;-67
2022/03/31 08:03:18;;;;;;;3.78;1.83;;;33.10;82.40;;;;;;4161115;28;20475;-67
2022/03/31 08:05:24;;;;;;;6.15;2.22;;;33.00;81.80;;;;;;4160141;28;20119;-67
2022/03/31 08:07:35;;;;;;;3.53;1.90;;;33.00;82.80;;;;;;4161613;28;20132;-67
2022/03/31 08:09:40;;;;;;;4.15;2.10;;;33.00;82.90;;;;;;4161648;28;20073;-66
2022/03/31 08:11:45;;;;;;;3.72;1.98;;;33.00;82.60;;;;;;4161482;28;20744;-67
2022/03/31 08:13:53;;;;;;;3.88;1.98;;;33.00;83.00;;;;;;4159617;28;20132;-67
2022/03/31 08:15:58;;;;;;;4.63;1.77;;;33.00;83.10;;;;;;4161583;28;20052;-67
2022/03/31 08:18:03;;;;;;;6.55;2.67;;;33.00;83.00;;;;;;4161531;28;20424;-67
2022/03/31 08:20:15;;;;;;;3.08;1.80;;;33.00;83.30;;;;;;4126833;28;20442;-67
2022/03/31 08:22:20;;;;;;;2.97;1.88;;;33.00;83.70;;;;;;4161099;28;20038;-67
2022/03/31 08:24:27;;;;;;;3.38;2.30;;;33.00;83.10;;;;;;4161288;28;20065;-67
2022/03/31 08:26:35;;;;;;;4.85;2.40;;;33.00;83.20;;;;;;4161435;28;20071;-67
2022/03/31 08:28:40;;;;;;;3.55;1.85;;;33.00;83.20;;;;;;4160641;28;20126;-67
2022/03/31 08:30:47;;;;;;;4.40;2.15;;;33.00;84.10;;;;;;4161077;28;20049;-67
2022/03/31 08:32:57;;;;;;;3.10;2.25;;;33.00;83.30;;;;;;4161345;28;20049;-68
2022/03/31 08:35:03;;;;;;;4.55;2.42;;;33.00;83.60;;;;;;4161498;28;20060;-67
2022/03/31 08:37:11;;;;;;;3.15;2.30;;;33.00;84.20;;;;;;4161546;28;20057;-67
2022/03/31 08:39:22;;;;;;;7.03;2.63;;;33.00;83.90;;;;;;4161016;28;20076;-67
2022/03/31 08:41:29;;;;;;;4.13;2.55;;;33.10;84.20;;;;;;4161330;28;20045;-67
2022/03/31 08:43:35;;;;;;;3.42;2.47;;;33.00;82.20;;;;;;4160478;28;20075;-67
2022/03/31 08:45:44;;;;;;;3.85;2.50;;;32.90;83.30;;;;;;4144497;28;20568;-67
2022/03/31 08:47:51;;;;;;;4.63;2.17;;;32.90;82.80;;;;;;4159682;28;20508;-66
2022/03/31 08:49:56;;;;;;;4.30;2.55;;;32.80;83.40;;;;;;4160585;28;20045;-67
2022/03/31 08:52:04;;;;;;;4.95;2.35;;;32.80;83.60;;;;;;4125897;28;20084;-67
2022/03/31 08:54:09;;;;;;;4.30;2.63;;;32.80;83.50;;;;;;4160450;28;20033;-67
2022/03/31 08:56:17;;;;;;;4.57;2.47;;;32.80;83.40;;;;;;4161107;28;20053;-68
2022/03/31 08:58:28;;;;;;;6.68;2.80;;;32.80;83.20;;;;;;4159535;28;20064;-67
2022/03/31 09:00:34;;;;;;;4.53;2.90;;;32.90;84.00;;;;;;4160086;28;20137;-67
2022/03/31 09:02:38;;;;;;;6.13;2.83;;;32.90;84.30;;;;;;4160776;28;20052;-67
2022/03/31 09:04:47;;;;;;;4.15;2.75;;;32.80;83.20;;;;;;4160191;28;20055;-67
2022/03/31 09:07:12;;;;;;;4.20;2.53;;;32.80;83.90;;;;;;4159407;28;20045;-67
2022/03/31 09:09:18;;;;;;;4.13;2.70;;;32.80;83.90;;;;;;4160395;28;20922;-67
2022/03/31 09:11:32;;;;;;;6.05;2.72;;;32.80;83.30;;;;;;4160608;28;20041;-67
2022/03/31 09:13:47;;;;;;;4.93;2.55;;;32.80;83.70;;;;;;4160346;28;20057;-67
2022/03/31 09:15:56;;;;;;;3.28;2.42;;;32.80;83.60;;;;;;4141314;28;20806;-67
2022/03/31 09:18:06;;;;;;;4.10;3.00;;;32.80;83.70;;;;;;4158288;28;20161;-68
2022/03/31 09:20:12;;;;;;;4.45;2.85;;;32.70;83.50;;;;;;4158070;28;20065;-67
2022/03/31 09:22:19;;;;;;;4.20;2.72;;;32.80;82.70;;;;;;4158178;28;20515;-67
2022/03/31 09:24:32;;;;;;;5.97;3.00;;;32.70;82.10;;;;;;4158067;28;20041;-67
2022/03/31 09:26:45;;;;;;;6.05;2.90;;;32.70;83.20;;;;;;4157431;28;20531;-67
2022/03/31 09:28:50;;;;;;;;;;;32.70;83.10;;;;;;4174369;28;20099;-67
2022/03/31 09:31:02;;;;;;;4.97;2.65;;;32.70;82.80;;;;;;4157743;28;19967;-67
2022/03/31 09:33:06;;;;;;;3.80;2.85;;;32.60;83.90;;;;;;4158040;28;20061;-67
2022/03/31 09:35:16;;;;;;;4.57;2.70;;;32.60;83.60;;;;;;4157579;28;20225;-66
2022/03/31 09:37:30;;;;;;;5.63;3.00;;;32.60;83.50;;;;;;4141689;28;20111;-67
2022/03/31 09:39:41;;;;;;;4.32;2.65;;;32.50;83.90;;;;;;4158419;28;20103;-67
2022/03/31 09:41:47;;;;;;;5.15;2.85;;;32.50;84.10;;;;;;4158061;28;20057;-67
2022/03/31 09:44:08;;;;;;;4.55;2.97;;;32.50;84.40;;;;;;4157722;28;20053;-67
2022/03/31 09:46:27;;;;;;;5.13;2.78;;;32.50;84.80;;;;;;4157080;28;20373;-67
2022/03/31 09:48:40;;;;;;;5.45;2.88;;;32.50;84.90;;;;;;4160425;28;20050;-66
2022/03/31 09:50:49;;;;;;;4.50;2.90;;;32.60;85.20;;;;;;4160216;28;20424;-66
2022/03/31 09:52:54;;;;;;;5.00;2.90;;;32.50;86.30;;;;;;4159770;28;20045;-67
2022/03/31 09:55:00;;;;;;;3.83;2.45;;;32.50;84.80;;;;;;4125153;28;20055;-67
2022/03/31 09:57:11;;;;;;;8.15;2.90;;;32.50;84.70;;;;;;4133845;28;20724;-67
2022/03/31 09:59:18;;;;;;;5.20;3.10;;;32.50;84.80;;;;;;4141345;28;20061;-67
2022/03/31 10:01:31;;;;;;;5.35;3.50;;;32.40;84.40;;;;;;4139492;28;20053;-67
2022/03/31 10:03:40;;;;;;;4.40;3.17;;;32.40;84.50;;;;;;4141473;28;20457;-68
2022/03/31 10:05:48;;;;;;;4.20;2.97;;;32.40;84.80;;;;;;4141421;28;20597;-68
2022/03/31 10:07:54;;;;;;;4.22;2.65;;;32.40;85.10;;;;;;4124981;28;20051;-68
2022/03/31 10:10:02;;;;;;;5.95;3.95;;;32.30;84.50;;;;;;4125371;28;20050;-67
2022/03/31 10:12:21;;;;;;;7.57;3.92;;;32.30;82.60;;;;;;4125436;28;20051;-67
2022/03/31 10:14:51;;;;;;;8.27;4.32;;;32.30;83.20;;;;;;4125392;28;20046;-68
2022/03/31 10:17:16;;;;;;;7.57;5.10;;;32.20;83.20;;;;;;4124713;28;20054;-67
2022/03/31 10:19:47;;;;;;;6.97;5.13;;;32.20;83.50;;;;;;4107721;28;20055;-67
2022/03/31 10:22:01;;;;;;;8.48;4.15;;;32.20;83.60;;;;;;4125138;28;20054;-67
2022/03/31 10:26:28;;;;;;;5.40;3.30;;;32.10;83.80;;;;;;4124145;28;20088;-68
2022/03/31 10:28:35;;;;;;;6.32;3.13;;;32.10;83.90;;;;;;4143222;28;20045;-67
2022/03/31 10:30:52;;;;;;;8.23;4.45;;;32.10;83.70;;;;;;4144463;28;20058;-67
2022/03/31 10:33:04;;;;;;;6.57;3.55;;;32.10;84.50;;;;;;4145065;28;20057;-68
2022/03/31 10:35:32;;;;;;;5.68;3.17;;;32.10;84.50;;;;;;4144915;28;20057;-68
2022/03/31 10:37:40;;;;;;;5.90;3.22;;;32.10;84.90;;;;;;4144992;28;20050;-67
2022/03/31 10:39:55;;;;;;;4.78;2.83;;;32.10;85.30;;;;;;4157328;28;20115;-68
2022/03/31 10:42:07;;;;;;;4.40;3.45;;;32.00;85.30;;;;;;4162794;28;20091;-67
2022/03/31 10:44:18;;;;;;;4.97;3.03;;;32.00;85.50;;;;;;4161776;28;20132;-67
2022/03/31 10:46:32;;;;;;;8.48;3.08;;;32.00;85.70;;;;;;4162675;28;20120;-67
2022/03/31 10:48:46;;;;;;;6.88;3.08;;;31.90;85.70;;;;;;4162431;28;20049;-67
2022/03/31 10:51:06;;;;;;;5.60;2.95;;;31.90;85.90;;;;;;4162533;28;20056;-67
2022/03/31 10:53:12;;;;;;;3.78;2.90;;;31.90;86.00;;;;;;4162499;28;20060;-67
2022/03/31 10:55:20;;;;;;;4.60;3.30;;;31.80;86.10;;;;;;4162470;28;20064;-67
2022/03/31 10:57:38;;;;;;;6.97;3.20;;;31.80;86.20;;;;;;4162009;28;20065;-67
2022/03/31 10:59:45;;;;;;;3.33;3.03;;;31.80;86.30;;;;;;4186972;28;20075;-67
2022/03/31 11:01:53;;;;;;;7.15;4.10;;;31.70;86.30;;;;;;4161279;28;20211;-68
2022/03/31 11:04:10;;;;;;;5.88;3.33;;;31.70;86.20;;;;;;4157411;28;20507;-68
2022/03/31 11:06:17;;;;;;;5.60;4.18;;;31.70;86.30;;;;;;4160304;28;20639;-66
2022/03/31 11:08:27;;;;;;;5.07;3.42;;;31.60;86.50;;;;;;4162762;28;20496;-67
2022/03/31 11:10:49;;;;;;;6.35;3.45;;;31.60;86.50;;;;;;4161864;28;20115;-67
2022/03/31 11:12:54;;;;;;;4.65;3.10;;;31.60;86.60;;;;;;4160796;28;20148;-67
2022/03/31 11:15:02;;;;;;;4.75;3.60;;;31.60;86.90;;;;;;4160486;28;20049;-67
2022/03/31 11:17:20;;;;;;;8.17;4.03;;;31.60;87.00;;;;;;4155025;28;20049;-67